sensor_id;sensor_type;location;lat;lon;timestamp;pressure;altitude;pressure_sealevel;temperature;humidity
6851;BME280;3464;42.728;23.296;2023-05-12T00:01:23;95500.62;;;14.09;60.70
6851;BME280;3464;42.728;23.296;2023-05-12T00:03:49;95503.98;;;14.01;61.40
6851;BME280;3464;42.728;23.296;2023-05-12T00:06:16;95502.28;;;14.09;60.63
6851;BME280;3464;42.728;23.296;2023-05-12T00:08:43;95506.95;;;13.94;60.99
6851;BME280;3464;42.728;23.296;2023-05-12T00:11:09;95495.10;;;14.19;60.52
6851;BME280;3464;42.728;23.296;2023-05-12T00:13:36;95494.70;;;14.13;60.27
6851;BME280;3464;42.728;23.296;2023-05-12T00:16:03;95493.84;;;14.17;60.60
6851;BME280;3464;42.728;23.296;2023-05-12T00:18:30;95498.50;;;13.98;60.90
6851;BME280;3464;42.728;23.296;2023-05-12T00:20:58;95505.27;;;13.90;60.43
6851;BME280;3464;42.728;23.296;2023-05-12T00:23:25;95492.58;;;14.08;60.69
6851;BME280;3464;42.728;23.296;2023-05-12T00:25:52;95496.39;;;14.15;60.10
6851;BME280;3464;42.728;23.296;2023-05-12T00:28:18;95498.92;;;14.13;59.95
6851;BME280;3464;42.728;23.296;2023-05-12T00:30:45;95495.12;;;13.93;61.46
6851;BME280;3464;42.728;23.296;2023-05-12T00:33:11;95498.48;;;14.08;60.22
6851;BME280;3464;42.728;23.296;2023-05-12T00:35:38;95486.97;;;14.68;59.30
6851;BME280;3464;42.728;23.296;2023-05-12T00:38:05;95503.17;;;13.81;60.38
6851;BME280;3464;42.728;23.296;2023-05-12T00:40:31;95497.20;;;14.17;60.36
6851;BME280;3464;42.728;23.296;2023-05-12T00:42:58;95506.09;;;13.74;61.36
6851;BME280;3464;42.728;23.296;2023-05-12T00:45:24;95505.27;;;13.61;61.36
6851;BME280;3464;42.728;23.296;2023-05-12T00:47:51;95515.74;;;13.32;61.98
6851;BME280;3464;42.728;23.296;2023-05-12T00:50:18;95505.25;;;13.60;62.65
6851;BME280;3464;42.728;23.296;2023-05-12T00:52:45;95509.48;;;14.08;62.37
6851;BME280;3464;42.728;23.296;2023-05-12T00:55:11;95501.45;;;13.62;62.37
6851;BME280;3464;42.728;23.296;2023-05-12T00:57:38;95511.14;;;13.47;62.71
6851;BME280;3464;42.728;23.296;2023-05-12T01:00:05;95514.04;;;13.22;64.08
6851;BME280;3464;42.728;23.296;2023-05-12T01:02:32;95514.50;;;13.34;63.72
6851;BME280;3464;42.728;23.296;2023-05-12T01:04:58;95504.78;;;13.24;65.00
6851;BME280;3464;42.728;23.296;2023-05-12T01:07:25;95517.06;;;13.62;64.82
6851;BME280;3464;42.728;23.296;2023-05-12T01:09:54;95516.64;;;13.50;64.25
6851;BME280;3464;42.728;23.296;2023-05-12T01:12:20;95517.00;;;13.18;64.65
6851;BME280;3464;42.728;23.296;2023-05-12T01:14:48;95517.86;;;13.25;65.18
6851;BME280;3464;42.728;23.296;2023-05-12T01:17:15;95512.41;;;13.58;66.04
6851;BME280;3464;42.728;23.296;2023-05-12T01:19:46;95525.50;;;13.69;64.72
6851;BME280;3464;42.728;23.296;2023-05-12T01:22:13;95524.15;;;13.22;66.75
6851;BME280;3464;42.728;23.296;2023-05-12T01:25:02;95518.61;;;13.01;67.93
6851;BME280;3464;42.728;23.296;2023-05-12T01:27:27;95524.98;;;13.12;68.24
6851;BME280;3464;42.728;23.296;2023-05-12T01:29:54;95521.56;;;13.04;68.48
6851;BME280;3464;42.728;23.296;2023-05-12T01:32:21;95525.72;;;12.94;69.91
6851;BME280;3464;42.728;23.296;2023-05-12T01:34:47;95526.52;;;12.79;70.88
6851;BME280;3464;42.728;23.296;2023-05-12T01:37:14;95526.47;;;12.68;70.38
6851;BME280;3464;42.728;23.296;2023-05-12T01:39:41;95522.73;;;12.86;71.66
6851;BME280;3464;42.728;23.296;2023-05-12T01:42:07;95523.12;;;12.74;71.09
6851;BME280;3464;42.728;23.296;2023-05-12T01:44:34;95521.05;;;12.86;72.89
6851;BME280;3464;42.728;23.296;2023-05-12T01:47:00;95525.35;;;13.04;72.71
6851;BME280;3464;42.728;23.296;2023-05-12T01:49:28;95523.17;;;12.88;73.23
6851;BME280;3464;42.728;23.296;2023-05-12T01:51:55;95529.02;;;12.73;74.11
6851;BME280;3464;42.728;23.296;2023-05-12T01:54:22;95522.31;;;12.84;73.15
6851;BME280;3464;42.728;23.296;2023-05-12T01:56:48;95520.68;;;12.92;73.90
6851;BME280;3464;42.728;23.296;2023-05-12T01:59:15;95522.69;;;12.68;74.46
6851;BME280;3464;42.728;23.296;2023-05-12T02:01:43;95535.80;;;12.83;74.87
6851;BME280;3464;42.728;23.296;2023-05-12T02:04:10;95527.54;;;13.30;73.34
6851;BME280;3464;42.728;23.296;2023-05-12T02:06:37;95526.48;;;12.77;74.58
6851;BME280;3464;42.728;23.296;2023-05-12T02:09:04;95526.45;;;12.66;75.80
6851;BME280;3464;42.728;23.296;2023-05-12T02:11:31;95529.72;;;12.47;77.05
6851;BME280;3464;42.728;23.296;2023-05-12T02:13:58;95520.70;;;12.14;78.13
6851;BME280;3464;42.728;23.296;2023-05-12T02:16:24;95521.27;;;12.37;76.60
6851;BME280;3464;42.728;23.296;2023-05-12T02:18:51;95526.09;;;12.04;79.23
6851;BME280;3464;42.728;23.296;2023-05-12T02:21:18;95523.22;;;12.16;79.73
6851;BME280;3464;42.728;23.296;2023-05-12T02:23:46;95532.22;;;11.81;80.82
6851;BME280;3464;42.728;23.296;2023-05-12T02:26:13;95524.06;;;12.98;76.79
6851;BME280;3464;42.728;23.296;2023-05-12T02:28:39;95520.41;;;12.41;77.93
6851;BME280;3464;42.728;23.296;2023-05-12T02:31:06;95530.38;;;12.17;78.80
6851;BME280;3464;42.728;23.296;2023-05-12T02:33:33;95525.09;;;12.49;78.14
6851;BME280;3464;42.728;23.296;2023-05-12T02:36:00;95520.46;;;12.46;78.83
6851;BME280;3464;42.728;23.296;2023-05-12T02:38:26;95530.29;;;12.05;78.88
6851;BME280;3464;42.728;23.296;2023-05-12T02:40:53;95520.84;;;12.41;78.89
6851;BME280;3464;42.728;23.296;2023-05-12T02:43:19;95546.30;;;12.09;79.98
6851;BME280;3464;42.728;23.296;2023-05-12T02:45:49;95530.41;;;12.22;80.32
6851;BME280;3464;42.728;23.296;2023-05-12T02:48:17;95518.14;;;12.12;80.08
6851;BME280;3464;42.728;23.296;2023-05-12T02:50:45;95521.50;;;12.11;79.65
6851;BME280;3464;42.728;23.296;2023-05-12T02:53:12;95521.46;;;12.05;80.20
6851;BME280;3464;42.728;23.296;2023-05-12T02:55:39;95522.75;;;12.10;80.32
6851;BME280;3464;42.728;23.296;2023-05-12T02:58:06;95522.72;;;12.07;81.02
6851;BME280;3464;42.728;23.296;2023-05-12T03:00:33;95518.09;;;12.06;80.62
6851;BME280;3464;42.728;23.296;2023-05-12T03:03:00;95523.38;;;12.40;79.30
6851;BME280;3464;42.728;23.296;2023-05-12T03:05:27;95531.69;;;12.25;79.91
6851;BME280;3464;42.728;23.296;2023-05-12T03:07:53;95522.03;;;13.23;78.25
6851;BME280;3464;42.728;23.296;2023-05-12T03:10:20;95527.32;;;12.73;77.49
6851;BME280;3464;42.728;23.296;2023-05-12T03:12:47;95525.48;;;12.44;78.78
6851;BME280;3464;42.728;23.296;2023-05-12T03:15:14;95528.73;;;12.21;79.44
6851;BME280;3464;42.728;23.296;2023-05-12T03:17:41;95519.86;;;12.19;79.33
6851;BME280;3464;42.728;23.296;2023-05-12T03:20:08;95526.25;;;12.31;79.80
6851;BME280;3464;42.728;23.296;2023-05-12T03:22:34;95535.65;;;12.52;79.65
6851;BME280;3464;42.728;23.296;2023-05-12T03:25:02;95536.25;;;12.15;79.73
6851;BME280;3464;42.728;23.296;2023-05-12T03:27:29;95538.01;;;12.24;81.15
6851;BME280;3464;42.728;23.296;2023-05-12T03:29:55;95540.58;;;12.32;81.32
6851;BME280;3464;42.728;23.296;2023-05-12T03:32:21;95534.79;;;12.51;80.25
6851;BME280;3464;42.728;23.296;2023-05-12T03:34:48;95536.39;;;12.34;81.13
6851;BME280;3464;42.728;23.296;2023-05-12T03:37:15;95542.72;;;12.40;81.24
6851;BME280;3464;42.728;23.296;2023-05-12T03:39:41;95541.98;;;12.55;81.09
6851;BME280;3464;42.728;23.296;2023-05-12T03:42:08;95540.21;;;12.43;81.17
6851;BME280;3464;42.728;23.296;2023-05-12T03:44:35;95545.19;;;12.31;80.96
6851;BME280;3464;42.728;23.296;2023-05-12T03:47:02;95544.97;;;12.00;82.40
6851;BME280;3464;42.728;23.296;2023-05-12T03:49:29;95546.37;;;12.18;82.12
6851;BME280;3464;42.728;23.296;2023-05-12T03:51:55;95552.23;;;12.15;81.71
6851;BME280;3464;42.728;23.296;2023-05-12T03:54:23;95545.38;;;12.61;81.92
6851;BME280;3464;42.728;23.296;2023-05-12T03:56:50;95550.91;;;12.76;80.18
6851;BME280;3464;42.728;23.296;2023-05-12T03:59:16;95538.50;;;12.39;80.77
6851;BME280;3464;42.728;23.296;2023-05-12T04:01:42;95548.67;;;12.50;80.04
6851;BME280;3464;42.728;23.296;2023-05-12T04:04:10;95553.44;;;12.74;80.14
6851;BME280;3464;42.728;23.296;2023-05-12T04:06:36;95548.36;;;12.73;79.86
6851;BME280;3464;42.728;23.296;2023-05-12T04:09:03;95555.08;;;12.69;79.68
6851;BME280;3464;42.728;23.296;2023-05-12T04:11:30;95554.75;;;12.86;79.58
6851;BME280;3464;42.728;23.296;2023-05-12T04:13:58;95553.50;;;12.93;79.28
6851;BME280;3464;42.728;23.296;2023-05-12T04:16:24;95548.79;;;12.73;79.12
6851;BME280;3464;42.728;23.296;2023-05-12T04:18:51;95559.07;;;13.07;79.04
6851;BME280;3464;42.728;23.296;2023-05-12T04:21:17;95562.09;;;13.24;78.18
6851;BME280;3464;42.728;23.296;2023-05-12T04:23:44;95558.61;;;12.99;78.12
6851;BME280;3464;42.728;23.296;2023-05-12T04:26:11;95569.19;;;13.05;78.07
6851;BME280;3464;42.728;23.296;2023-05-12T04:28:37;95556.96;;;13.04;78.49
6851;BME280;3464;42.728;23.296;2023-05-12T04:31:04;95563.38;;;13.30;77.72
6851;BME280;3464;42.728;23.296;2023-05-12T04:33:31;95558.98;;;12.93;77.66
6851;BME280;3464;42.728;23.296;2023-05-12T04:35:58;95556.83;;;12.79;78.40
6851;BME280;3464;42.728;23.296;2023-05-12T04:38:24;95559.39;;;12.87;78.39
6851;BME280;3464;42.728;23.296;2023-05-12T04:40:51;95551.54;;;13.24;77.31
6851;BME280;3464;42.728;23.296;2023-05-12T04:43:18;95560.44;;;13.34;77.03
6851;BME280;3464;42.728;23.296;2023-05-12T04:45:46;95557.37;;;13.04;77.98
6851;BME280;3464;42.728;23.296;2023-05-12T04:48:13;95565.78;;;13.04;78.54
6851;BME280;3464;42.728;23.296;2023-05-12T04:50:40;95557.02;;;13.25;78.13
6851;BME280;3464;42.728;23.296;2023-05-12T04:53:06;95566.85;;;12.66;78.14
6851;BME280;3464;42.728;23.296;2023-05-12T04:55:34;95560.32;;;13.04;78.31
6851;BME280;3464;42.728;23.296;2023-05-12T04:58:01;95562.78;;;12.95;78.07
6851;BME280;3464;42.728;23.296;2023-05-12T05:00:29;95571.05;;;12.64;78.96
6851;BME280;3464;42.728;23.296;2023-05-12T05:02:55;95569.09;;;12.93;79.08
6851;BME280;3464;42.728;23.296;2023-05-12T05:05:22;95556.59;;;13.19;77.96
6851;BME280;3464;42.728;23.296;2023-05-12T05:07:49;95567.18;;;13.38;76.77
6851;BME280;3464;42.728;23.296;2023-05-12T05:10:16;95562.20;;;13.81;75.35
6851;BME280;3464;42.728;23.296;2023-05-12T05:12:43;95570.59;;;13.58;75.25
6851;BME280;3464;42.728;23.296;2023-05-12T05:15:12;95560.09;;;13.83;75.11
6851;BME280;3464;42.728;23.296;2023-05-12T05:17:39;95571.35;;;13.29;75.49
6851;BME280;3464;42.728;23.296;2023-05-12T05:20:06;95571.00;;;13.55;75.56
6851;BME280;3464;42.728;23.296;2023-05-12T05:22:33;95570.89;;;13.12;75.33
6851;BME280;3464;42.728;23.296;2023-05-12T05:25:00;95572.19;;;13.19;74.75
6851;BME280;3464;42.728;23.296;2023-05-12T05:27:28;95569.72;;;13.40;74.78
6851;BME280;3464;42.728;23.296;2023-05-12T05:29:55;95577.80;;;13.86;74.07
6851;BME280;3464;42.728;23.296;2023-05-12T05:32:21;95580.34;;;13.81;72.80
6851;BME280;3464;42.728;23.296;2023-05-12T05:34:48;95577.80;;;13.80;72.92
6851;BME280;3464;42.728;23.296;2023-05-12T05:37:16;95587.03;;;13.53;72.59
6851;BME280;3464;42.728;23.296;2023-05-12T05:39:41;95587.03;;;13.54;73.27
6851;BME280;3464;42.728;23.296;2023-05-12T05:42:08;95569.32;;;13.58;73.42
6851;BME280;3464;42.728;23.296;2023-05-12T05:44:35;95578.25;;;14.33;71.43
6851;BME280;3464;42.728;23.296;2023-05-12T05:47:02;95570.17;;;13.65;72.11
6851;BME280;3464;42.728;23.296;2023-05-12T05:49:29;95577.80;;;13.80;72.23
6851;BME280;3464;42.728;23.296;2023-05-12T05:51:55;95579.42;;;13.52;72.40
6851;BME280;3464;42.728;23.296;2023-05-12T05:54:23;95579.87;;;13.55;72.39
6851;BME280;3464;42.728;23.296;2023-05-12T05:56:49;95590.80;;;13.49;73.14
6851;BME280;3464;42.728;23.296;2023-05-12T05:59:16;95577.80;;;13.95;73.19
6851;BME280;3464;42.728;23.296;2023-05-12T06:01:42;95577.80;;;13.75;72.16
6851;BME280;3464;42.728;23.296;2023-05-12T06:04:10;95581.22;;;14.35;71.02
6851;BME280;3464;42.728;23.296;2023-05-12T06:06:37;95587.87;;;13.49;72.07
6851;BME280;3464;42.728;23.296;2023-05-12T06:09:03;95589.18;;;13.80;72.02
6851;BME280;3464;42.728;23.296;2023-05-12T06:11:30;95584.56;;;14.10;71.09
6851;BME280;3464;42.728;23.296;2023-05-12T06:13:57;95584.16;;;14.06;70.95
6851;BME280;3464;42.728;23.296;2023-05-12T06:16:24;95592.59;;;14.16;71.25
6851;BME280;3464;42.728;23.296;2023-05-12T06:18:51;95595.94;;;13.90;71.96
6851;BME280;3464;42.728;23.296;2023-05-12T06:21:17;95594.64;;;14.80;69.40
6851;BME280;3464;42.728;23.296;2023-05-12T06:23:44;95594.28;;;14.42;70.05
6851;BME280;3464;42.728;23.296;2023-05-12T06:26:11;95600.63;;;14.35;69.06
6851;BME280;3464;42.728;23.296;2023-05-12T06:28:39;95596.36;;;14.58;69.15
6851;BME280;3464;42.728;23.296;2023-05-12T06:31:06;95591.09;;;15.32;66.95
6851;BME280;3464;42.728;23.296;2023-05-12T06:33:33;95600.60;;;14.02;69.81
6851;BME280;3464;42.728;23.296;2023-05-12T06:36:00;95597.66;;;14.19;69.39
6851;BME280;3464;42.728;23.296;2023-05-12T06:38:26;95599.71;;;13.80;70.94
6851;BME280;3464;42.728;23.296;2023-05-12T06:40:53;95606.53;;;14.46;69.34
6851;BME280;3464;42.728;23.296;2023-05-12T06:43:19;95600.17;;;14.22;68.90
6851;BME280;3464;42.728;23.296;2023-05-12T06:45:48;95605.63;;;14.74;68.17
6851;BME280;3464;42.728;23.296;2023-05-12T06:48:14;95610.34;;;14.46;67.51
6851;BME280;3464;42.728;23.296;2023-05-12T06:50:41;95610.73;;;14.55;68.64
6851;BME280;3464;42.728;23.296;2023-05-12T06:53:07;95602.59;;;15.04;67.92
6851;BME280;3464;42.728;23.296;2023-05-12T06:55:35;95611.09;;;14.87;66.83
6851;BME280;3464;42.728;23.296;2023-05-12T06:58:02;95616.67;;;14.44;67.41
6851;BME280;3464;42.728;23.296;2023-05-12T07:00:29;95612.45;;;14.25;68.28
6851;BME280;3464;42.728;23.296;2023-05-12T07:02:56;95608.23;;;14.38;68.57
6851;BME280;3464;42.728;23.296;2023-05-12T07:05:23;95609.07;;;14.41;67.83
6851;BME280;3464;42.728;23.296;2023-05-12T07:07:49;95611.91;;;14.98;67.02
6851;BME280;3464;42.728;23.296;2023-05-12T07:10:16;95611.13;;;14.66;66.61
6851;BME280;3464;42.728;23.296;2023-05-12T07:12:42;95605.14;;;15.06;65.90
6851;BME280;3464;42.728;23.296;2023-05-12T07:15:09;95604.22;;;15.23;66.04
6851;BME280;3464;42.728;23.296;2023-05-12T07:17:37;95599.53;;;15.30;65.22
6851;BME280;3464;42.728;23.296;2023-05-12T07:20:04;95605.16;;;15.92;63.71
6851;BME280;3464;42.728;23.296;2023-05-12T07:22:31;95605.31;;;15.67;64.80
6851;BME280;3464;42.728;23.296;2023-05-12T07:24:58;95602.30;;;15.74;63.71
6851;BME280;3464;42.728;23.296;2023-05-12T07:27:24;95606.23;;;15.49;63.81
6851;BME280;3464;42.728;23.296;2023-05-12T07:29:52;95608.08;;;15.98;63.06
6851;BME280;3464;42.728;23.296;2023-05-12T07:32:18;95610.26;;;14.86;64.43
6851;BME280;3464;42.728;23.296;2023-05-12T07:34:46;95603.87;;;15.01;65.64
6851;BME280;3464;42.728;23.296;2023-05-12T07:37:12;95605.41;;;15.47;65.24
6851;BME280;3464;42.728;23.296;2023-05-12T07:39:40;95615.75;;;15.89;63.55
6851;BME280;3464;42.728;23.296;2023-05-12T07:42:06;95614.12;;;15.78;63.01
6851;BME280;3464;42.728;23.296;2023-05-12T07:44:33;95602.97;;;16.04;62.60
6851;BME280;3464;42.728;23.296;2023-05-12T07:47:00;95616.85;;;15.35;64.53
6851;BME280;3464;42.728;23.296;2023-05-12T07:49:26;95609.26;;;15.32;64.91
6851;BME280;3464;42.728;23.296;2023-05-12T07:51:53;95614.09;;;16.40;62.52
6851;BME280;3464;42.728;23.296;2023-05-12T07:54:19;95609.66;;;15.42;64.29
6851;BME280;3464;42.728;23.296;2023-05-12T07:56:46;95604.93;;;15.58;63.96
6851;BME280;3464;42.728;23.296;2023-05-12T07:59:12;95608.14;;;15.85;64.00
6851;BME280;3464;42.728;23.296;2023-05-12T08:01:39;95605.11;;;15.97;62.36
6851;BME280;3464;42.728;23.296;2023-05-12T08:04:06;95610.44;;;16.21;61.67
6851;BME280;3464;42.728;23.296;2023-05-12T08:06:33;95592.28;;;17.44;58.88
6851;BME280;3464;42.728;23.296;2023-05-12T08:08:59;95598.81;;;18.22;57.74
6851;BME280;3464;42.728;23.296;2023-05-12T08:11:26;95594.66;;;18.92;55.67
6851;BME280;3464;42.728;23.296;2023-05-12T08:13:52;95605.13;;;18.77;55.31
6851;BME280;3464;42.728;23.296;2023-05-12T08:16:19;95597.84;;;19.27;54.10
6851;BME280;3464;42.728;23.296;2023-05-12T08:18:46;95589.56;;;20.33;52.28
6851;BME280;3464;42.728;23.296;2023-05-12T08:21:12;95589.56;;;20.33;50.67
6851;BME280;3464;42.728;23.296;2023-05-12T08:23:39;95593.92;;;19.53;52.24
6851;BME280;3464;42.728;23.296;2023-05-12T08:26:06;95590.83;;;19.96;49.18
6851;BME280;3464;42.728;23.296;2023-05-12T08:28:32;95592.78;;;20.59;48.39
6851;BME280;3464;42.728;23.296;2023-05-12T08:31:00;95588.61;;;21.94;47.34
6851;BME280;3464;42.728;23.296;2023-05-12T08:33:28;95596.34;;;21.19;46.58
6851;BME280;3464;42.728;23.296;2023-05-12T08:35:56;95586.05;;;21.51;46.36
6851;BME280;3464;42.728;23.296;2023-05-12T08:38:24;95589.73;;;20.07;48.45
6851;BME280;3464;42.728;23.296;2023-05-12T08:41:05;95592.50;;;19.97;48.53
6851;BME280;3464;42.728;23.296;2023-05-12T08:43:32;95590.86;;;20.67;47.29
6851;BME280;3464;42.728;23.296;2023-05-12T08:45:56;95591.20;;;20.18;47.81
6851;BME280;3464;42.728;23.296;2023-05-12T08:48:26;95588.38;;;20.80;47.86
6851;BME280;3464;42.728;23.296;2023-05-12T08:50:54;95597.69;;;19.55;48.78
6851;BME280;3464;42.728;23.296;2023-05-12T08:53:21;95605.53;;;18.54;49.68
6851;BME280;3464;42.728;23.296;2023-05-12T08:55:48;95592.22;;;19.52;48.40
6851;BME280;3464;42.728;23.296;2023-05-12T08:58:15;95600.98;;;18.47;50.42
6851;BME280;3464;42.728;23.296;2023-05-12T09:00:42;95592.02;;;20.19;48.59
6851;BME280;3464;42.728;23.296;2023-05-12T09:03:09;95588.10;;;21.53;45.65
6851;BME280;3464;42.728;23.296;2023-05-12T09:05:36;95598.88;;;18.94;48.63
6851;BME280;3464;42.728;23.296;2023-05-12T09:08:03;95590.64;;;18.56;50.31
6851;BME280;3464;42.728;23.296;2023-05-12T09:10:30;95600.22;;;17.18;52.50
6851;BME280;3464;42.728;23.296;2023-05-12T09:13:01;95588.48;;;17.41;52.49
6851;BME280;3464;42.728;23.296;2023-05-12T09:15:26;95590.66;;;17.70;52.02
6851;BME280;3464;42.728;23.296;2023-05-12T09:17:51;95586.17;;;17.88;51.59
6851;BME280;3464;42.728;23.296;2023-05-12T09:20:20;95566.45;;;19.00;49.85
6851;BME280;3464;42.728;23.296;2023-05-12T09:22:46;95576.66;;;19.44;48.80
6851;BME280;3464;42.728;23.296;2023-05-12T09:25:17;95578.41;;;18.97;49.35
6851;BME280;3464;42.728;23.296;2023-05-12T09:27:47;95565.89;;;19.07;48.16
6851;BME280;3464;42.728;23.296;2023-05-12T09:30:14;95583.15;;;18.94;48.24
6851;BME280;3464;42.728;23.296;2023-05-12T09:32:43;95587.45;;;17.86;50.16
6851;BME280;3464;42.728;23.296;2023-05-12T09:35:11;95560.55;;;19.40;48.52
6851;BME280;3464;42.728;23.296;2023-05-12T09:37:37;95568.39;;;19.71;47.03
6851;BME280;3464;42.728;23.296;2023-05-12T09:40:05;95573.22;;;18.55;49.23
6851;BME280;3464;42.728;23.296;2023-05-12T09:42:32;95571.75;;;18.90;49.00
6851;BME280;3464;42.728;23.296;2023-05-12T09:45:04;95581.66;;;18.33;50.12
6851;BME280;3464;42.728;23.296;2023-05-12T09:47:34;95573.35;;;18.71;49.50
6851;BME280;3464;42.728;23.296;2023-05-12T09:50:01;95579.06;;;18.61;49.62
6851;BME280;3464;42.728;23.296;2023-05-12T09:52:27;95566.19;;;19.93;46.98
6851;BME280;3464;42.728;23.296;2023-05-12T09:54:53;95561.83;;;20.34;46.89
6851;BME280;3464;42.728;23.296;2023-05-12T09:57:20;95556.41;;;21.27;45.41
6851;BME280;3464;42.728;23.296;2023-05-12T09:59:48;95563.29;;;21.55;44.63
6851;BME280;3464;42.728;23.296;2023-05-12T10:02:15;95563.29;;;21.40;44.27
6851;BME280;3464;42.728;23.296;2023-05-12T10:04:46;95562.01;;;21.25;44.86
6851;BME280;3464;42.728;23.296;2023-05-12T10:07:10;95552.13;;;20.48;45.33
6851;BME280;3464;42.728;23.296;2023-05-12T10:09:37;95553.87;;;20.46;45.51
6851;BME280;3464;42.728;23.296;2023-05-12T10:12:05;95548.31;;;22.65;43.23
6851;BME280;3464;42.728;23.296;2023-05-12T10:14:32;95545.95;;;22.95;42.40
6851;BME280;3464;42.728;23.296;2023-05-12T10:16:59;95545.64;;;22.68;41.94
6851;BME280;3464;42.728;23.296;2023-05-12T10:19:26;95544.53;;;20.92;44.52
6851;BME280;3464;42.728;23.296;2023-05-12T10:21:52;95545.59;;;21.89;42.86
6851;BME280;3464;42.728;23.296;2023-05-12T10:24:19;95548.77;;;21.84;42.64
6851;BME280;3464;42.728;23.296;2023-05-12T10:26:45;95535.64;;;22.07;42.94
6851;BME280;3464;42.728;23.296;2023-05-12T10:29:13;95533.62;;;22.69;40.88
6851;BME280;3464;42.728;23.296;2023-05-12T10:31:40;95535.22;;;23.08;41.07
6851;BME280;3464;42.728;23.296;2023-05-12T10:34:13;95527.63;;;23.74;40.43
6851;BME280;3464;42.728;23.296;2023-05-12T10:36:46;95524.03;;;24.75;39.31
6851;BME280;3464;42.728;23.296;2023-05-12T10:39:13;95533.55;;;23.20;40.02
6851;BME280;3464;42.728;23.296;2023-05-12T10:41:40;95519.48;;;24.29;39.23
6851;BME280;3464;42.728;23.296;2023-05-12T10:44:07;95520.00;;;24.68;38.28
6851;BME280;3464;42.728;23.296;2023-05-12T10:46:33;95520.63;;;24.63;38.31
6851;BME280;3464;42.728;23.296;2023-05-12T10:49:00;95516.28;;;23.47;39.74
6851;BME280;3464;42.728;23.296;2023-05-12T10:51:30;95517.58;;;23.35;40.32
6851;BME280;3464;42.728;23.296;2023-05-12T10:54:00;95511.33;;;23.30;38.59
6851;BME280;3464;42.728;23.296;2023-05-12T10:56:27;95523.36;;;21.77;40.64
6851;BME280;3464;42.728;23.296;2023-05-12T10:59:13;95512.13;;;22.34;41.69
6851;BME280;3464;42.728;23.296;2023-05-12T11:01:39;95515.41;;;23.47;39.55
6851;BME280;3464;42.728;23.296;2023-05-12T11:04:11;95516.42;;;23.08;39.01
6851;BME280;3464;42.728;23.296;2023-05-12T11:06:37;95517.98;;;23.12;39.78
6851;BME280;3464;42.728;23.296;2023-05-12T11:09:04;95514.20;;;23.33;38.52
6851;BME280;3464;42.728;23.296;2023-05-12T11:11:30;95522.86;;;24.41;38.58
6851;BME280;3464;42.728;23.296;2023-05-12T11:13:57;95541.44;;;21.43;39.80
6851;BME280;3464;42.728;23.296;2023-05-12T11:16:23;95528.21;;;21.71;39.93
6851;BME280;3464;42.728;23.296;2023-05-12T11:19:00;95536.10;;;21.36;40.43
6851;BME280;3464;42.728;23.296;2023-05-12T11:21:27;95519.95;;;22.30;39.52
6851;BME280;3464;42.728;23.296;2023-05-12T11:23:53;95521.32;;;23.71;38.78
6851;BME280;3464;42.728;23.296;2023-05-12T11:26:20;95521.48;;;23.89;37.94
6851;BME280;3464;42.728;23.296;2023-05-12T11:28:47;95530.88;;;24.23;37.09
6851;BME280;3464;42.728;23.296;2023-05-12T11:31:18;95526.84;;;23.28;38.88
6851;BME280;3464;42.728;23.296;2023-05-12T11:33:45;95536.09;;;23.43;37.51
6851;BME280;3464;42.728;23.296;2023-05-12T11:36:12;95523.09;;;22.77;37.34
6851;BME280;3464;42.728;23.296;2023-05-12T11:38:46;95527.78;;;24.67;35.25
6851;BME280;3464;42.728;23.296;2023-05-12T11:41:08;95540.57;;;22.39;35.97
6851;BME280;3464;42.728;23.296;2023-05-12T11:43:34;95538.83;;;21.44;37.92
6851;BME280;3464;42.728;23.296;2023-05-12T11:46:01;95540.28;;;21.39;38.01
6851;BME280;3464;42.728;23.296;2023-05-12T11:48:32;95545.87;;;21.52;38.32
6851;BME280;3464;42.728;23.296;2023-05-12T11:50:58;95538.89;;;20.32;40.04
6851;BME280;3464;42.728;23.296;2023-05-12T11:53:26;95531.78;;;20.44;40.43
6851;BME280;3464;42.728;23.296;2023-05-12T11:55:53;95530.50;;;21.51;38.44
6851;BME280;3464;42.728;23.296;2023-05-12T11:58:22;95522.77;;;20.94;39.16
6851;BME280;3464;42.728;23.296;2023-05-12T12:00:49;95538.61;;;20.59;39.71
6851;BME280;3464;42.728;23.296;2023-05-12T12:03:16;95535.13;;;21.69;38.93
6851;BME280;3464;42.728;23.296;2023-05-12T12:05:44;95525.39;;;20.76;39.13
6851;BME280;3464;42.728;23.296;2023-05-12T12:08:11;95533.41;;;20.46;39.54
6851;BME280;3464;42.728;23.296;2023-05-12T12:10:44;95526.82;;;21.61;38.44
6851;BME280;3464;42.728;23.296;2023-05-12T12:13:12;95532.13;;;21.10;38.99
6851;BME280;3464;42.728;23.296;2023-05-12T12:15:38;95528.53;;;21.60;39.07
6851;BME280;3464;42.728;23.296;2023-05-12T12:18:05;95523.14;;;21.98;38.55
6851;BME280;3464;42.728;23.296;2023-05-12T12:20:32;95523.80;;;22.42;38.60
6851;BME280;3464;42.728;23.296;2023-05-12T12:23:00;95530.93;;;22.34;38.16
6851;BME280;3464;42.728;23.296;2023-05-12T12:25:26;95542.67;;;21.30;38.73
6851;BME280;3464;42.728;23.296;2023-05-12T12:27:53;95535.97;;;21.40;39.02
6851;BME280;3464;42.728;23.296;2023-05-12T12:30:23;95526.57;;;22.23;39.34
6851;BME280;3464;42.728;23.296;2023-05-12T12:32:53;95528.05;;;22.04;39.97
6851;BME280;3464;42.728;23.296;2023-05-12T12:35:22;95533.94;;;21.66;40.49
6851;BME280;3464;42.728;23.296;2023-05-12T12:37:53;95529.55;;;22.24;40.47
6851;BME280;3464;42.728;23.296;2023-05-12T12:40:22;95532.12;;;21.55;41.66
6851;BME280;3464;42.728;23.296;2023-05-12T12:42:54;95528.80;;;21.94;40.71
6851;BME280;3464;42.728;23.296;2023-05-12T12:45:21;95525.66;;;24.25;37.07
6851;BME280;3464;42.728;23.296;2023-05-12T12:47:51;95527.89;;;21.54;40.07
6851;BME280;3464;42.728;23.296;2023-05-12T12:50:19;95524.36;;;22.65;39.50
6851;BME280;3464;42.728;23.296;2023-05-12T12:52:50;95532.26;;;21.93;40.63
6851;BME280;3464;42.728;23.296;2023-05-12T12:55:17;95523.23;;;22.73;39.36
6851;BME280;3464;42.728;23.296;2023-05-12T12:57:44;95511.90;;;24.36;37.37
6851;BME280;3464;42.728;23.296;2023-05-12T13:00:13;95511.87;;;22.91;38.62
6851;BME280;3464;42.728;23.296;2023-05-12T13:02:40;95516.36;;;22.09;39.13
6851;BME280;3464;42.728;23.296;2023-05-12T13:05:08;95509.23;;;22.31;39.51
6851;BME280;3464;42.728;23.296;2023-05-12T13:07:34;95505.00;;;23.39;38.49
6851;BME280;3464;42.728;23.296;2023-05-12T13:10:05;95511.19;;;22.10;39.32